createdAt,value
2022-12-15T00:00:53.569Z,30.07
2022-12-15T00:03:39.420Z,29.97
2022-12-15T00:06:25.587Z,29.57
2022-12-15T00:09:14.572Z,30.07
2022-12-15T00:12:05.929Z,28.23
2022-12-15T00:14:51.471Z,30.27
2022-12-15T00:17:40.074Z,28.87
2022-12-15T00:20:26.463Z,30.43
2022-12-15T00:23:14.643Z,30.03
2022-12-15T00:26:04.292Z,31.10
2022-12-15T00:28:49.988Z,31.83
2022-12-15T00:31:38.166Z,31.67
2022-12-15T00:34:26.261Z,30.33
2022-12-15T00:37:12.130Z,30.07
2022-12-15T00:39:40.447Z,31.23
2022-12-15T00:42:09.216Z,29.83
2022-12-15T00:44:37.429Z,30.10
2022-12-15T00:47:09.023Z,29.57
2022-12-15T00:49:59.192Z,31.20
2022-12-15T00:52:48.304Z,30.30
2022-12-15T00:55:33.940Z,30.87
2022-12-15T00:58:19.668Z,30.60
2022-12-15T01:01:05.045Z,31.13
2022-12-15T01:03:54.006Z,31.50
2022-12-15T01:06:43.192Z,31.10
2022-12-15T01:09:31.483Z,31.90
2022-12-15T01:12:16.792Z,32.40
2022-12-15T01:15:02.734Z,31.40
2022-12-15T01:17:53.412Z,31.70
2022-12-15T01:20:20.584Z,31.77
2022-12-15T01:22:50.445Z,32.97
2022-12-15T01:25:19.197Z,32.40
2022-12-15T01:27:49.344Z,32.87
2022-12-15T01:30:19.747Z,31.83
2022-12-15T01:32:46.914Z,31.70
2022-12-15T01:35:14.509Z,33.37
2022-12-15T01:37:44.129Z,31.83
2022-12-15T01:40:37.933Z,33.67
2022-12-15T01:43:12.222Z,33.63
2022-12-15T01:45:54.075Z,33.70
2022-12-15T01:48:25.338Z,34.13
2022-12-15T01:51:26.940Z,34.03
2022-12-15T01:54:05.150Z,31.90
2022-12-15T01:56:37.898Z,31.93
2022-12-15T01:59:12.907Z,31.60
2022-12-15T02:01:42.560Z,34.27
2022-12-15T02:04:12.478Z,31.90
2022-12-15T02:06:39.680Z,32.53
2022-12-15T02:09:13.930Z,31.67
2022-12-15T02:11:58.216Z,31.73
2022-12-15T02:14:45.436Z,32.73
2022-12-15T02:18:10.958Z,32.37
2022-12-15T02:21:01.918Z,34.37
2022-12-15T02:24:10.627Z,34.37
2022-12-15T02:27:30.684Z,33.33
2022-12-15T02:30:22.239Z,32.53
2022-12-15T02:33:04.244Z,33.53
2022-12-15T02:35:37.571Z,34.17
2022-12-15T02:38:04.736Z,33.70
2022-12-15T02:40:34.212Z,34.47
2022-12-15T02:43:06.171Z,35.73
2022-12-15T02:45:45.522Z,33.60
2022-12-15T02:48:41.083Z,33.90
2022-12-15T02:51:36.509Z,36.70
2022-12-15T02:54:17.853Z,34.47
2022-12-15T02:57:23.906Z,33.93
2022-12-15T03:00:10.673Z,34.60
2022-12-15T03:02:46.682Z,33.70
2022-12-15T03:05:17.643Z,36.17
2022-12-15T03:07:49.720Z,34.37
2022-12-15T03:10:17.974Z,34.73
2022-12-15T03:12:47.244Z,34.77
2022-12-15T03:15:17.757Z,34.03
2022-12-15T03:17:49.721Z,34.73
2022-12-15T03:20:20.065Z,35.43
2022-12-15T03:22:47.136Z,30.63
2022-12-15T03:25:16.536Z,35.53
2022-12-15T03:27:45.283Z,33.57
2022-12-15T03:30:12.851Z,34.50
2022-12-15T03:32:46.716Z,36.43
2022-12-15T03:35:13.991Z,34.97
2022-12-15T03:37:43.759Z,35.50
2022-12-15T03:40:13.833Z,35.53
2022-12-15T03:42:49.398Z,35.27
2022-12-15T03:45:22.169Z,35.93
2022-12-15T03:47:49.723Z,35.33
2022-12-15T03:50:24.235Z,35.47
2022-12-15T03:52:53.289Z,35.90
2022-12-15T03:55:23.686Z,35.03
2022-12-15T03:57:51.532Z,34.67
2022-12-15T04:00:20.829Z,33.83
2022-12-15T04:02:50.153Z,34.10
2022-12-15T04:05:28.886Z,33.13
2022-12-15T04:07:57.571Z,34.40
2022-12-15T04:10:30.249Z,32.90
2022-12-15T04:13:03.734Z,34.63
2022-12-15T04:15:30.895Z,34.00
2022-12-15T04:17:58.475Z,34.60
2022-12-15T04:20:25.637Z,35.07
2022-12-15T04:22:52.911Z,35.03
2022-12-15T04:25:45.119Z,35.27
2022-12-15T04:28:31.675Z,34.07
2022-12-15T04:31:25.622Z,35.03
2022-12-15T04:34:15.691Z,34.67
2022-12-15T04:37:06.367Z,35.23
2022-12-15T04:39:54.472Z,35.57
2022-12-15T04:42:43.306Z,36.27
2022-12-15T04:45:35.576Z,35.23
2022-12-15T04:48:21.758Z,35.57
2022-12-15T04:51:07.354Z,34.70
2022-12-15T04:53:53.133Z,37.00
2022-12-15T04:56:38.398Z,34.93
2022-12-15T04:59:26.458Z,34.47
2022-12-15T05:02:12.392Z,35.57
2022-12-15T05:05:00.979Z,36.53
2022-12-15T05:07:49.576Z,36.00
2022-12-15T05:10:35.419Z,35.03
2022-12-15T05:13:27.857Z,34.53
2022-12-15T05:16:16.419Z,34.43
2022-12-15T05:19:02.144Z,36.23
2022-12-15T05:21:47.642Z,35.43
2022-12-15T05:24:33.111Z,34.93
2022-12-15T05:27:21.045Z,33.33
2022-12-15T05:30:06.423Z,35.17
2022-12-15T05:32:33.916Z,35.67
2022-12-15T05:35:01.500Z,33.53
2022-12-15T05:37:28.916Z,33.17
2022-12-15T05:40:00.396Z,33.60
2022-12-15T05:42:27.549Z,35.67
2022-12-15T05:44:54.724Z,34.30
2022-12-15T05:47:21.836Z,35.70
2022-12-15T05:49:51.322Z,37.47
2022-12-15T05:52:20.783Z,32.70
2022-12-15T05:54:52.587Z,34.60
2022-12-15T05:57:24.505Z,34.90
2022-12-15T05:59:51.605Z,34.23
2022-12-15T06:02:20.888Z,35.17
2022-12-15T06:04:48.124Z,35.43
2022-12-15T06:07:17.639Z,36.40
2022-12-15T06:09:44.853Z,35.13
2022-12-15T06:12:12.162Z,33.20
2022-12-15T06:14:39.268Z,34.67
2022-12-15T06:17:08.829Z,35.57
2022-12-15T06:19:36.001Z,33.93
2022-12-15T06:22:03.218Z,35.90
2022-12-15T06:24:30.382Z,34.13
2022-12-15T06:27:00.024Z,34.93
2022-12-15T06:29:29.645Z,34.10
2022-12-15T06:31:56.814Z,35.17
2022-12-15T06:34:24.008Z,32.73
2022-12-15T06:36:55.612Z,34.70
2022-12-15T06:39:22.749Z,36.40
2022-12-15T06:41:49.911Z,34.40
2022-12-15T06:44:17.118Z,34.77
2022-12-15T06:46:46.141Z,34.10
2022-12-15T06:49:13.914Z,34.23
2022-12-15T06:51:44.944Z,32.97
2022-12-15T06:54:14.248Z,33.50
2022-12-15T06:56:42.328Z,33.73
2022-12-15T06:59:11.207Z,33.90
2022-12-15T07:01:41.656Z,32.77
2022-12-15T07:04:11.295Z,32.37
2022-12-15T07:06:42.281Z,33.63
2022-12-15T07:09:16.108Z,34.60
2022-12-15T07:11:43.932Z,33.43
2022-12-15T07:14:13.193Z,34.03
2022-12-15T07:16:41.109Z,31.80
2022-12-15T07:19:11.686Z,34.00
2022-12-15T07:21:41.613Z,34.80
2022-12-15T07:24:13.880Z,33.20
2022-12-15T07:26:43.233Z,33.20
2022-12-15T07:29:19.549Z,33.10
2022-12-15T07:31:50.308Z,33.83
2022-12-15T07:34:22.667Z,34.87
2022-12-15T07:36:52.484Z,34.03
2022-12-15T07:39:20.328Z,33.97
2022-12-15T07:41:49.954Z,32.57
2022-12-15T07:44:19.302Z,33.30
2022-12-15T07:46:49.058Z,32.83
2022-12-15T07:49:19.292Z,33.37
2022-12-15T07:51:46.557Z,32.53
2022-12-15T07:54:14.918Z,32.87
2022-12-15T07:56:44.969Z,32.27
2022-12-15T07:59:17.664Z,32.87
2022-12-15T08:01:44.971Z,31.90
2022-12-15T08:04:14.868Z,34.47
2022-12-15T08:06:44.718Z,35.57
2022-12-15T08:09:12.222Z,34.40
2022-12-15T08:11:39.363Z,34.43
2022-12-15T08:14:14.935Z,32.63
2022-12-15T08:16:45.272Z,33.47
2022-12-15T08:19:13.681Z,34.17
2022-12-15T08:21:42.653Z,33.03
2022-12-15T08:24:10.509Z,32.93
2022-12-15T08:26:38.485Z,34.70
2022-12-15T08:32:03.804Z,33.93
2022-12-15T08:34:31.333Z,33.70
2022-12-15T08:36:58.457Z,33.53
2022-12-15T08:39:25.953Z,34.80
2022-12-15T08:41:53.121Z,33.40
2022-12-15T08:44:23.299Z,34.13
2022-12-15T08:46:55.125Z,31.60
2022-12-15T08:49:22.681Z,35.77
2022-12-15T08:51:54.336Z,34.67
2022-12-15T08:54:23.733Z,32.77
2022-12-15T08:56:50.956Z,32.73
2022-12-15T08:59:20.434Z,33.30
2022-12-15T09:01:47.733Z,34.10
2022-12-15T09:04:15.676Z,33.20
2022-12-15T09:06:50.250Z,33.57
2022-12-15T09:09:20.209Z,32.47
2022-12-15T09:11:50.113Z,34.67
2022-12-15T09:14:25.556Z,34.03
2022-12-15T09:16:58.590Z,33.33
2022-12-15T09:19:25.777Z,34.23
2022-12-15T09:21:53.091Z,32.90
2022-12-15T09:24:34.059Z,33.23
2022-12-15T09:27:04.752Z,33.23
2022-12-15T09:29:38.780Z,33.33
2022-12-15T09:32:14.111Z,32.83
2022-12-15T09:34:43.965Z,32.63
2022-12-15T09:37:11.258Z,32.73
2022-12-15T09:39:39.141Z,32.57
2022-12-15T09:42:06.316Z,31.43
2022-12-15T09:44:37.898Z,32.80
2022-12-15T09:47:11.988Z,29.83
2022-12-15T09:50:03.037Z,31.27
2022-12-15T09:52:39.720Z,31.90
2022-12-15T09:55:19.429Z,31.03
2022-12-15T09:57:56.424Z,32.87
2022-12-15T10:00:34.861Z,30.60
2022-12-15T10:03:23.747Z,31.27
2022-12-15T10:06:16.640Z,34.10
2022-12-15T10:08:58.583Z,32.47
2022-12-15T10:11:28.770Z,33.10
2022-12-15T10:14:49.833Z,34.60
2022-12-15T10:17:24.649Z,35.10
2022-12-15T10:20:13.582Z,35.73
2022-12-15T10:22:40.805Z,32.60
2022-12-15T10:25:29.278Z,33.53
2022-12-15T10:28:15.887Z,31.17
2022-12-15T10:31:03.483Z,33.13
2022-12-15T10:33:39.643Z,31.93
2022-12-15T10:36:12.433Z,32.47
2022-12-15T10:38:50.460Z,30.67
2022-12-15T10:41:35.033Z,32.07
2022-12-15T10:44:02.775Z,29.93
2022-12-15T10:46:32.665Z,31.53
2022-12-15T10:49:23.945Z,31.67
2022-12-15T10:51:57.288Z,33.03
2022-12-15T10:54:32.262Z,30.87
2022-12-15T10:57:17.273Z,34.23
2022-12-15T10:59:44.746Z,31.93
2022-12-15T11:02:24.488Z,32.10
2022-12-15T11:05:16.196Z,30.87
2022-12-15T11:07:50.406Z,33.47
2022-12-15T11:10:26.055Z,30.80
2022-12-15T11:13:18.828Z,31.63
2022-12-15T11:15:56.606Z,32.20
2022-12-15T11:18:30.778Z,31.37
2022-12-15T11:21:04.021Z,30.67
2022-12-15T11:24:10.350Z,31.63
2022-12-15T11:27:12.624Z,30.70
2022-12-15T11:30:01.124Z,31.27
2022-12-15T11:32:37.493Z,30.47
2022-12-15T11:35:13.885Z,31.30
2022-12-15T11:37:43.410Z,30.67
2022-12-15T11:40:28.671Z,32.37
2022-12-15T11:43:09.320Z,32.00
2022-12-15T11:45:59.603Z,32.37
2022-12-15T11:48:44.109Z,30.10
2022-12-15T11:51:23.864Z,29.53
2022-12-15T11:54:10.701Z,27.30
2022-12-15T11:56:56.600Z,28.33
2022-12-15T11:59:38.721Z,30.97
2022-12-15T12:02:37.002Z,30.60
2022-12-15T12:05:28.473Z,29.83
2022-12-15T12:08:17.262Z,32.07
2022-12-15T12:10:56.003Z,31.23
2022-12-15T12:13:47.090Z,30.87
2022-12-15T12:16:41.107Z,31.03
2022-12-15T12:19:19.427Z,28.13
2022-12-15T12:21:59.229Z,29.03
2022-12-15T12:24:31.503Z,31.40
2022-12-15T12:27:03.433Z,31.63
2022-12-15T12:29:35.008Z,28.17
2022-12-15T12:32:15.545Z,28.93
2022-12-15T12:35:29.745Z,28.60
2022-12-15T12:38:03.380Z,28.40
2022-12-15T12:40:47.525Z,29.80
2022-12-15T12:43:33.291Z,28.43
2022-12-15T12:46:22.590Z,29.00
2022-12-15T12:49:22.861Z,27.57
2022-12-15T12:51:58.656Z,27.07
2022-12-15T12:55:14.454Z,29.10
2022-12-15T12:57:46.390Z,29.43
2022-12-15T13:00:35.716Z,29.77
2022-12-15T13:03:21.583Z,28.60
2022-12-15T13:05:51.010Z,26.17
2022-12-15T13:08:27.452Z,28.03
2022-12-15T13:10:57.400Z,30.00
2022-12-15T13:13:33.778Z,28.60
2022-12-15T13:16:06.184Z,28.63
2022-12-15T13:19:01.938Z,28.87
2022-12-15T13:21:43.591Z,28.60
2022-12-15T13:24:28.675Z,27.20
2022-12-15T13:27:08.943Z,27.80
2022-12-15T13:29:59.488Z,28.63
2022-12-15T13:32:37.139Z,28.07
2022-12-15T13:35:13.581Z,28.23
2022-12-15T13:37:53.336Z,26.00
2022-12-15T13:40:25.671Z,26.97
2022-12-15T13:43:05.077Z,28.70
2022-12-15T13:45:37.711Z,27.90
2022-12-15T13:48:36.290Z,26.67
2022-12-15T13:51:19.914Z,26.87
2022-12-15T13:54:15.547Z,25.60
2022-12-15T13:56:49.488Z,22.50
2022-12-15T13:59:42.429Z,23.27
2022-12-15T14:02:28.414Z,22.53
2022-12-15T14:05:17.653Z,20.37
2022-12-15T14:07:54.907Z,19.83
2022-12-15T14:10:29.853Z,19.83
2022-12-15T14:13:01.797Z,19.23
2022-12-15T14:15:34.212Z,20.80
2022-12-15T14:18:04.465Z,22.23
2022-12-15T14:20:41.425Z,23.17
2022-12-15T14:23:26.351Z,22.87
2022-12-15T14:25:54.544Z,24.40
2022-12-15T14:28:30.895Z,23.70
2022-12-15T14:31:14.302Z,24.23
2022-12-15T14:33:44.191Z,24.00
2022-12-15T14:36:19.882Z,24.57
2022-12-15T14:39:04.867Z,23.60
2022-12-15T14:41:41.700Z,23.20
2022-12-15T14:44:37.115Z,24.23
2022-12-15T14:47:15.883Z,20.87
2022-12-15T14:49:45.492Z,21.30
2022-12-15T14:52:37.115Z,22.20
2022-12-15T14:55:37.827Z,21.90
2022-12-15T14:58:41.006Z,21.00
2022-12-15T15:01:29.971Z,21.27
2022-12-15T15:04:04.279Z,22.63
2022-12-15T15:06:40.296Z,24.43
2022-12-15T15:09:24.469Z,23.27
2022-12-15T15:12:02.596Z,21.73
2022-12-15T15:14:52.830Z,22.67
2022-12-15T15:17:52.013Z,26.47
2022-12-15T15:20:31.950Z,24.17
2022-12-15T15:23:10.789Z,23.17
2022-12-15T15:25:48.660Z,23.03
2022-12-15T15:28:18.513Z,22.30
2022-12-15T15:30:56.140Z,23.77
2022-12-15T15:33:27.504Z,23.03
2022-12-15T15:36:02.644Z,25.47
2022-12-15T15:38:35.434Z,24.07
2022-12-15T15:41:24.383Z,23.50
2022-12-15T15:43:51.926Z,23.50
2022-12-15T15:46:23.992Z,23.10
2022-12-15T15:49:02.639Z,23.40
2022-12-15T15:51:32.083Z,24.03
2022-12-15T15:54:13.982Z,24.00
2022-12-15T15:56:41.598Z,23.63
2022-12-15T15:59:20.955Z,24.00
2022-12-15T16:01:54.821Z,24.57
2022-12-15T16:04:23.453Z,22.97
2022-12-15T16:06:51.863Z,25.33
2022-12-15T16:09:22.581Z,23.80
2022-12-15T16:11:52.105Z,25.93
2022-12-15T16:14:21.843Z,25.40
2022-12-15T16:16:53.901Z,24.30
2022-12-15T16:19:28.582Z,26.17
2022-12-15T16:21:58.085Z,25.70
2022-12-15T16:24:25.202Z,26.63
2022-12-15T16:26:52.543Z,26.13
2022-12-15T16:29:21.330Z,25.90
2022-12-15T16:31:53.278Z,26.60
2022-12-15T16:34:21.533Z,26.60
2022-12-15T16:36:51.096Z,26.17
2022-12-15T16:39:38.580Z,26.70
2022-12-15T16:42:11.721Z,24.43
2022-12-15T16:44:38.822Z,25.00
2022-12-15T16:47:05.912Z,25.17
2022-12-15T16:49:39.782Z,26.43
2022-12-15T16:52:20.373Z,26.83
2022-12-15T16:54:49.151Z,25.77
2022-12-15T16:57:18.595Z,26.70
2022-12-15T16:59:45.946Z,26.67
2022-12-15T17:02:31.599Z,27.40
2022-12-15T17:04:58.910Z,27.73
2022-12-15T17:07:28.156Z,28.23
2022-12-15T17:09:55.955Z,26.43
2022-12-15T17:12:28.341Z,26.90
2022-12-15T17:14:57.528Z,27.87
2022-12-15T17:17:26.370Z,27.17
2022-12-15T17:20:31.183Z,27.03
2022-12-15T17:22:47.892Z,27.40
2022-12-15T17:26:10.414Z,27.87
2022-12-15T17:28:36.657Z,26.87
2022-12-15T17:31:04.045Z,27.47
2022-12-15T17:33:35.635Z,27.77
2022-12-15T17:36:25.264Z,26.93
2022-12-15T17:38:59.325Z,27.53
2022-12-15T17:41:58.124Z,26.57
2022-12-15T17:44:36.882Z,26.60
2022-12-15T17:47:09.079Z,25.97
2022-12-15T17:49:39.439Z,25.57
2022-12-15T17:52:17.814Z,25.33
2022-12-15T17:54:44.990Z,25.47
2022-12-15T17:57:14.506Z,26.13
2022-12-15T17:59:41.697Z,25.30
2022-12-15T18:02:13.068Z,26.57
2022-12-15T18:04:41.591Z,25.53
2022-12-15T18:07:27.168Z,25.27
2022-12-15T18:09:59.338Z,26.27
2022-12-15T18:12:27.344Z,27.07
2022-12-15T18:14:57.120Z,25.10
2022-12-15T18:17:26.621Z,26.33
2022-12-15T18:19:55.860Z,27.23
2022-12-15T18:22:30.504Z,25.87
2022-12-15T18:24:57.631Z,26.00
2022-12-15T18:27:27.397Z,25.30
2022-12-15T18:29:54.676Z,24.50
2022-12-15T18:32:25.477Z,24.57
2022-12-15T18:34:53.892Z,25.30
2022-12-15T18:37:26.480Z,25.43
2022-12-15T18:39:56.242Z,24.13
2022-12-15T18:42:28.179Z,25.23
2022-12-15T18:44:56.712Z,25.60
2022-12-15T18:47:27.722Z,26.67
2022-12-15T18:49:57.332Z,26.80
2022-12-15T18:52:32.948Z,26.53
2022-12-15T18:55:04.026Z,26.97
2022-12-15T18:57:36.397Z,26.60
2022-12-15T19:00:24.546Z,26.07
2022-12-15T19:02:53.592Z,25.40
2022-12-15T19:05:29.249Z,26.40
2022-12-15T19:08:02.279Z,25.90
2022-12-15T19:10:32.703Z,25.77
2022-12-15T19:13:02.323Z,25.77
2022-12-15T19:15:34.170Z,26.87
2022-12-15T19:18:21.782Z,26.43
2022-12-15T19:21:07.680Z,27.80
2022-12-15T19:23:35.277Z,26.63
2022-12-15T19:26:02.816Z,28.30
2022-12-15T19:28:33.136Z,27.53
2022-12-15T19:31:02.599Z,28.53
2022-12-15T19:33:32.249Z,27.40
2022-12-15T19:36:05.389Z,29.10
2022-12-15T19:38:33.200Z,28.73
2022-12-15T19:41:02.796Z,27.80
2022-12-15T19:43:30.336Z,29.57
2022-12-15T19:45:57.947Z,28.70
2022-12-15T19:48:27.581Z,27.77
2022-12-15T19:50:57.344Z,27.80
2022-12-15T19:53:32.328Z,28.37
2022-12-15T19:56:01.521Z,28.43
2022-12-15T19:58:30.257Z,27.77
2022-12-15T20:01:04.469Z,27.70
2022-12-15T20:03:34.884Z,26.87
2022-12-15T20:06:22.311Z,27.80
2022-12-15T20:08:51.963Z,28.30
2022-12-15T20:11:27.819Z,26.73
2022-12-15T20:13:56.329Z,27.43
2022-12-15T20:16:24.161Z,26.37
2022-12-15T20:18:53.641Z,27.20
2022-12-15T20:21:28.727Z,26.97
2022-12-15T20:24:00.506Z,25.90
2022-12-15T20:26:30.090Z,26.37
2022-12-15T20:28:59.967Z,27.70
2022-12-15T20:31:27.863Z,27.30
2022-12-15T20:33:55.154Z,27.53
2022-12-15T20:36:26.381Z,26.37
2022-12-15T20:38:56.663Z,26.57
2022-12-15T20:41:30.628Z,27.37
2022-12-15T20:44:00.354Z,27.73
2022-12-15T20:46:34.871Z,28.00
2022-12-15T20:49:13.231Z,27.40
2022-12-15T20:51:43.160Z,28.13
2022-12-15T20:54:18.894Z,27.60
2022-12-15T20:56:49.584Z,29.63
2022-12-15T20:59:17.386Z,29.73
2022-12-15T21:01:45.044Z,30.10
2022-12-15T21:04:35.118Z,30.63
2022-12-15T21:07:06.081Z,28.70
2022-12-15T21:09:35.754Z,28.97
2022-12-15T21:12:09.115Z,29.40
2022-12-15T21:14:36.659Z,30.47
2022-12-15T21:17:03.856Z,29.70
2022-12-15T21:19:31.374Z,31.00
2022-12-15T21:22:01.207Z,30.00
2022-12-15T21:24:33.534Z,31.80
2022-12-15T21:27:04.157Z,31.63
2022-12-15T21:29:31.881Z,32.37
2022-12-15T21:32:01.258Z,31.57
2022-12-15T21:34:28.683Z,33.73
2022-12-15T21:36:56.946Z,32.57
2022-12-15T21:39:29.776Z,31.73
2022-12-15T21:42:06.099Z,30.67
2022-12-15T21:44:33.196Z,32.70
2022-12-15T21:47:02.554Z,30.20
2022-12-15T21:49:34.684Z,29.87
2022-12-15T21:52:04.070Z,29.57
2022-12-15T21:54:35.177Z,31.37
2022-12-15T21:57:02.895Z,31.73
2022-12-15T21:59:32.378Z,31.07
2022-12-15T22:02:17.535Z,33.03
2022-12-15T22:04:44.754Z,31.40
2022-12-15T22:07:16.170Z,31.80
2022-12-15T22:09:44.422Z,30.27
2022-12-15T22:12:24.017Z,30.60
2022-12-15T22:14:53.513Z,31.47
2022-12-15T22:17:26.628Z,31.20
2022-12-15T22:19:53.782Z,32.13
2022-12-15T22:22:20.880Z,32.37
2022-12-15T22:24:52.423Z,31.50
2022-12-15T22:27:22.837Z,32.47
2022-12-15T22:29:50.446Z,31.43
2022-12-15T22:32:17.876Z,33.77
2022-12-15T22:34:52.197Z,32.07
2022-12-15T22:37:19.292Z,29.80
2022-12-15T22:39:46.461Z,30.80
2022-12-15T22:42:17.448Z,32.80
2022-12-15T22:44:45.005Z,33.87
2022-12-15T22:47:14.277Z,34.77
2022-12-15T22:49:43.471Z,34.10
2022-12-15T22:52:21.190Z,33.30
2022-12-15T22:54:48.438Z,33.23
2022-12-15T22:57:26.828Z,31.67
2022-12-15T23:00:09.488Z,33.67
2022-12-15T23:02:42.893Z,35.43
2022-12-15T23:05:12.719Z,35.90
2022-12-15T23:07:39.923Z,33.73
2022-12-15T23:10:26.115Z,35.03
2022-12-15T23:12:55.842Z,34.07
2022-12-15T23:15:45.559Z,34.37
2022-12-15T23:18:16.156Z,35.53
2022-12-15T23:20:43.422Z,36.20
2022-12-15T23:23:15.487Z,36.20
2022-12-15T23:25:49.375Z,35.57
2022-12-15T23:28:18.665Z,34.13
2022-12-15T23:30:52.695Z,34.53
2022-12-15T23:33:26.180Z,35.20
2022-12-15T23:35:55.028Z,33.63
2022-12-15T23:38:22.626Z,34.03
2022-12-15T23:40:53.105Z,33.90
2022-12-15T23:43:21.187Z,35.33
2022-12-15T23:46:02.730Z,34.27
2022-12-15T23:48:32.192Z,34.30
2022-12-15T23:51:16.314Z,34.30
2022-12-15T23:53:44.768Z,34.37
2022-12-15T23:56:19.589Z,35.57
2022-12-15T23:58:54.472Z,36.20
